createdAt,value
2018-02-09T00:02:01.825Z,-1.74
2018-02-09T00:04:30.694Z,-1.81
2018-02-09T00:06:58.565Z,-1.85
2018-02-09T00:09:26.660Z,-1.89
2018-02-09T00:11:54.555Z,-1.87
2018-02-09T00:14:24.644Z,-1.97
2018-02-09T00:16:52.713Z,-1.99
2018-02-09T00:19:20.555Z,-1.88
2018-02-09T00:21:48.640Z,-1.85
2018-02-09T00:24:16.681Z,-1.97
2018-02-09T00:26:44.549Z,-2.00
2018-02-09T00:29:12.438Z,-1.97
2018-02-09T00:31:40.282Z,-2.01
2018-02-09T00:34:08.186Z,-2.03
2018-02-09T00:36:36.065Z,-1.96
2018-02-09T00:39:04.235Z,-1.84
2018-02-09T00:41:32.625Z,-1.91
2018-02-09T00:44:00.542Z,-1.91
2018-02-09T00:46:28.509Z,-1.96
2018-02-09T00:48:57.726Z,-1.91
2018-02-09T00:51:25.631Z,-1.89
2018-02-09T00:53:53.510Z,-1.94
2018-02-09T00:56:21.650Z,-1.83
2018-02-09T00:58:49.467Z,-1.76
2018-02-09T01:01:17.364Z,-1.73
2018-02-09T01:03:45.486Z,-1.74
2018-02-09T01:06:13.393Z,-1.75
2018-02-09T01:08:42.031Z,-1.74
2018-02-09T01:11:09.956Z,-1.67
2018-02-09T01:13:37.817Z,-1.72
2018-02-09T01:16:06.956Z,-1.73
2018-02-09T01:18:34.921Z,-1.82
2018-02-09T01:21:03.010Z,-1.76
2018-02-09T01:23:31.072Z,-1.77
2018-02-09T01:25:59.138Z,-1.75
2018-02-09T01:28:27.146Z,-1.69
2018-02-09T01:30:55.286Z,-1.66
2018-02-09T01:33:23.255Z,-1.67
2018-02-09T01:35:51.174Z,-1.71
2018-02-09T01:38:19.087Z,-1.72
2018-02-09T01:40:47.034Z,-1.65
2018-02-09T01:43:14.894Z,-1.64
2018-02-09T01:45:42.896Z,-1.57
2018-02-09T01:48:10.906Z,-1.84
2018-02-09T01:50:38.795Z,-1.83
2018-02-09T01:53:06.907Z,-1.84
2018-02-09T01:55:34.978Z,-1.79
2018-02-09T01:58:02.876Z,-1.72
2018-02-09T02:00:31.287Z,-1.65
2018-02-09T02:02:59.309Z,-1.64
2018-02-09T02:05:27.368Z,-1.67
2018-02-09T02:07:55.365Z,-1.65
2018-02-09T02:10:23.433Z,-1.63
2018-02-09T02:12:51.296Z,-1.59
2018-02-09T02:15:19.350Z,-1.54
2018-02-09T02:17:47.425Z,-1.57
2018-02-09T02:20:15.571Z,-1.50
2018-02-09T02:22:43.440Z,-1.49
2018-02-09T02:25:11.386Z,-1.52
2018-02-09T02:27:39.274Z,-1.50
2018-02-09T02:30:07.344Z,-1.49
2018-02-09T02:32:36.059Z,-1.48
2018-02-09T02:35:04.026Z,-1.43
2018-02-09T02:37:31.895Z,-1.40
2018-02-09T02:39:59.863Z,-1.37
2018-02-09T02:42:27.934Z,-1.33
2018-02-09T02:44:55.946Z,-1.31
2018-02-09T02:47:24.060Z,-1.33
2018-02-09T02:49:51.925Z,-1.30
2018-02-09T02:52:19.813Z,-1.33
2018-02-09T02:54:47.790Z,-1.35
2018-02-09T02:57:15.930Z,-1.31
2018-02-09T02:59:44.029Z,-1.29
2018-02-09T03:02:12.099Z,-1.29
2018-02-09T03:04:40.176Z,-1.26
2018-02-09T03:07:08.244Z,-1.24
2018-02-09T03:09:36.316Z,-1.24
2018-02-09T03:12:04.041Z,-1.26
2018-02-09T03:14:31.857Z,-1.24
2018-02-09T03:17:00.027Z,-1.46
2018-02-09T03:19:27.987Z,-1.34
2018-02-09T03:21:55.820Z,-1.29
2018-02-09T03:24:23.714Z,-1.26
2018-02-09T03:26:51.796Z,-1.30
2018-02-09T03:29:19.866Z,-1.29
2018-02-09T03:31:47.665Z,-1.29
2018-02-09T03:34:15.642Z,-1.23
2018-02-09T03:36:43.776Z,-1.21
2018-02-09T03:39:11.794Z,-1.22
2018-02-09T03:41:40.328Z,-1.18
2018-02-09T03:44:08.324Z,-1.14
2018-02-09T03:46:36.441Z,-1.23
2018-02-09T03:49:04.531Z,-1.23
2018-02-09T03:51:32.622Z,-1.23
2018-02-09T03:54:00.379Z,-1.20
2018-02-09T03:56:28.916Z,-1.21
2018-02-09T03:58:56.808Z,-1.35
2018-02-09T04:01:24.669Z,-1.39
2018-02-09T04:03:52.542Z,-1.44
2018-02-09T04:06:20.352Z,-1.60
2018-02-09T04:08:48.271Z,-1.63
2018-02-09T04:11:16.071Z,-1.66
2018-02-09T04:13:44.003Z,-1.64
2018-02-09T04:16:12.598Z,-1.47
2018-02-09T04:18:40.693Z,-1.39
2018-02-09T04:21:08.703Z,-1.38
2018-02-09T04:23:36.597Z,-1.33
2018-02-09T04:26:04.463Z,-1.31
2018-02-09T04:28:32.432Z,-1.34
2018-02-09T04:31:00.539Z,-1.30
2018-02-09T04:33:28.632Z,-1.21
2018-02-09T04:35:56.529Z,-1.22
2018-02-09T04:38:24.551Z,-1.22
2018-02-09T04:40:52.611Z,-1.16
2018-02-09T04:43:20.461Z,-1.13
2018-02-09T04:45:48.326Z,-1.11
2018-02-09T04:48:17.062Z,-1.16
2018-02-09T04:50:44.931Z,-1.23
2018-02-09T04:53:12.982Z,-1.21
2018-02-09T04:55:40.918Z,-1.16
2018-02-09T04:58:09.744Z,-1.23
2018-02-09T05:00:37.614Z,-1.32
2018-02-09T05:03:05.680Z,-1.26
2018-02-09T05:05:33.715Z,-1.19
2018-02-09T05:08:01.822Z,-1.12
2018-02-09T05:10:29.665Z,-1.21
2018-02-09T05:12:57.611Z,-1.16
2018-02-09T05:15:25.735Z,-1.12
2018-02-09T05:17:53.792Z,-1.07
2018-02-09T05:20:21.777Z,-1.04
2018-02-09T05:22:49.763Z,-1.03
2018-02-09T05:25:17.618Z,-1.07
2018-02-09T05:27:45.658Z,-1.28
2018-02-09T05:30:13.959Z,-1.23
2018-02-09T05:32:42.015Z,-1.42
2018-02-09T05:35:10.397Z,-1.47
2018-02-09T05:37:38.328Z,-1.46
2018-02-09T05:40:06.349Z,-1.37
2018-02-09T05:42:34.435Z,-1.25
2018-02-09T05:45:02.435Z,-1.22
2018-02-09T05:47:30.359Z,-1.30
2018-02-09T05:49:58.431Z,-1.28
2018-02-09T05:52:28.904Z,-1.31
2018-02-09T05:54:57.751Z,-1.30
2018-02-09T05:57:25.765Z,-1.22
2018-02-09T05:59:53.609Z,-1.24
2018-02-09T06:02:22.497Z,-1.28
2018-02-09T06:04:50.653Z,-1.20
2018-02-09T06:07:18.525Z,-1.17
2018-02-09T06:09:46.876Z,-1.17
2018-02-09T06:12:15.066Z,-1.23
2018-02-09T06:14:42.945Z,-1.32
2018-02-09T06:17:10.873Z,-1.33
2018-02-09T06:19:38.745Z,-1.29
2018-02-09T06:22:06.731Z,-1.40
2018-02-09T06:24:34.656Z,-1.37
2018-02-09T06:27:03.890Z,-1.27
2018-02-09T06:29:33.218Z,-1.23
2018-02-09T06:32:00.975Z,-1.19
2018-02-09T06:34:29.154Z,-1.12
2018-02-09T06:36:57.158Z,-1.02
2018-02-09T06:39:25.071Z,-0.98
2018-02-09T06:41:53.185Z,-0.95
2018-02-09T06:44:21.187Z,-1.01
2018-02-09T06:46:48.904Z,-1.00
2018-02-09T06:49:16.970Z,-0.85
2018-02-09T06:51:45.032Z,-0.93
2018-02-09T06:54:12.826Z,-0.95
2018-02-09T06:56:41.871Z,-0.84
2018-02-09T06:59:09.577Z,-0.81
2018-02-09T07:01:37.678Z,-0.83
2018-02-09T07:04:05.693Z,-0.75
2018-02-09T07:06:33.590Z,-0.75
2018-02-09T07:09:01.502Z,-0.66
2018-02-09T07:11:29.393Z,-0.67
2018-02-09T07:13:57.487Z,-0.76
2018-02-09T07:16:25.557Z,-0.70
2018-02-09T07:18:53.628Z,-0.70
2018-02-09T07:21:21.496Z,-0.63
2018-02-09T07:23:49.571Z,-0.56
2018-02-09T07:26:17.640Z,-0.48
2018-02-09T07:28:45.662Z,-0.46
2018-02-09T07:31:13.784Z,-0.45
2018-02-09T07:33:41.854Z,-0.48
2018-02-09T07:36:09.928Z,-0.48
2018-02-09T07:38:37.800Z,-0.36
2018-02-09T07:41:05.868Z,-0.38
2018-02-09T07:43:33.912Z,-0.30
2018-02-09T07:46:01.883Z,-0.52
2018-02-09T07:48:29.878Z,-0.56
2018-02-09T07:50:57.944Z,-0.37
2018-02-09T07:53:25.830Z,-0.22
2018-02-09T07:55:53.686Z,-0.41
2018-02-09T07:58:21.789Z,-0.33
2018-02-09T08:00:50.111Z,-0.55
2018-02-09T08:03:17.836Z,-0.52
2018-02-09T08:05:45.867Z,-0.39
2018-02-09T08:08:13.814Z,-0.30
2018-02-09T08:10:42.530Z,-0.40
2018-02-09T08:13:10.597Z,-0.37
2018-02-09T08:15:38.670Z,-0.44
2018-02-09T08:18:06.724Z,-0.23
2018-02-09T08:20:34.813Z,-0.22
2018-02-09T08:23:03.362Z,-0.31
2018-02-09T08:25:31.881Z,-0.23
2018-02-09T08:27:59.821Z,-0.25
2018-02-09T08:30:27.820Z,-0.21
2018-02-09T08:32:55.874Z,-0.03
2018-02-09T08:35:23.960Z,-0.05
2018-02-09T08:37:52.851Z,-0.14
2018-02-09T08:40:20.779Z,0.26
2018-02-09T08:42:48.895Z,0.37
2018-02-09T08:45:16.964Z,0.27
2018-02-09T08:47:45.041Z,0.19
2018-02-09T08:50:12.930Z,0.28
2018-02-09T08:52:40.961Z,0.55
2018-02-09T08:55:08.770Z,0.88
2018-02-09T08:57:36.608Z,0.89
2018-02-09T09:00:04.639Z,1.07
2018-02-09T09:02:33.570Z,1.04
2018-02-09T09:05:02.448Z,1.15
2018-02-09T09:07:30.536Z,1.21
2018-02-09T09:09:59.426Z,0.78
2018-02-09T09:12:27.500Z,1.19
2018-02-09T09:14:56.294Z,1.30
2018-02-09T09:17:24.051Z,1.27
2018-02-09T09:19:52.124Z,1.59
2018-02-09T09:22:19.990Z,1.81
2018-02-09T09:24:47.839Z,2.15
2018-02-09T09:27:15.740Z,1.60
2018-02-09T09:29:43.598Z,1.88
2018-02-09T09:32:11.557Z,1.75
2018-02-09T09:34:39.626Z,2.36
2018-02-09T09:37:07.705Z,2.78
2018-02-09T09:39:35.776Z,2.63
2018-02-09T09:42:03.849Z,2.27
2018-02-09T09:44:31.795Z,2.28
2018-02-09T09:46:59.786Z,2.68
2018-02-09T09:49:29.599Z,2.53
2018-02-09T09:51:57.471Z,2.99
2018-02-09T09:54:25.635Z,2.47
2018-02-09T09:56:53.924Z,3.58
2018-02-09T09:59:21.850Z,3.33
2018-02-09T10:01:50.062Z,3.65
2018-02-09T10:04:17.980Z,3.04
2018-02-09T10:06:46.070Z,3.74
2018-02-09T10:09:14.162Z,3.21
2018-02-09T10:11:42.649Z,3.65
2018-02-09T10:14:10.722Z,3.37
2018-02-09T10:16:38.801Z,4.01
2018-02-09T10:19:07.282Z,4.00
2018-02-09T10:21:35.354Z,3.95
2018-02-09T10:24:03.429Z,4.17
2018-02-09T10:26:31.498Z,4.34
2018-02-09T10:28:59.500Z,3.94
2018-02-09T10:31:27.680Z,4.88
2018-02-09T10:33:55.709Z,4.28
2018-02-09T10:36:23.650Z,5.02
2018-02-09T10:38:53.215Z,5.67
2018-02-09T10:41:21.136Z,6.25
2018-02-09T10:43:49.250Z,6.11
2018-02-09T10:46:17.194Z,5.49
2018-02-09T10:48:45.236Z,6.17
2018-02-09T10:51:13.061Z,5.48
2018-02-09T10:53:41.047Z,5.53
2018-02-09T10:56:08.992Z,6.06
2018-02-09T10:58:37.049Z,5.92
2018-02-09T11:01:05.236Z,4.93
2018-02-09T11:03:33.769Z,5.66
2018-02-09T11:06:02.632Z,5.57
2018-02-09T11:08:30.387Z,5.99
2018-02-09T11:10:58.265Z,6.45
2018-02-09T11:13:31.831Z,6.17
2018-02-09T11:16:00.635Z,6.24
2018-02-09T11:18:29.207Z,6.00
2018-02-09T11:20:57.276Z,6.30
2018-02-09T11:23:25.276Z,6.01
2018-02-09T11:25:53.895Z,6.19
2018-02-09T11:28:22.000Z,5.93
2018-02-09T11:30:50.074Z,6.18
2018-02-09T11:33:18.117Z,5.88
2018-02-09T11:35:46.219Z,6.00
2018-02-09T11:38:14.260Z,6.47
2018-02-09T11:40:41.949Z,6.30
2018-02-09T11:43:10.018Z,6.17
2018-02-09T11:45:38.082Z,5.58
2018-02-09T11:48:06.970Z,5.92
2018-02-09T11:50:35.058Z,6.58
2018-02-09T11:53:02.902Z,6.02
2018-02-09T11:55:30.999Z,6.43
2018-02-09T11:57:59.893Z,6.77
2018-02-09T12:00:27.956Z,6.42
2018-02-09T12:02:55.826Z,6.85
2018-02-09T12:05:23.893Z,5.88
2018-02-09T12:07:51.974Z,6.44
2018-02-09T12:10:20.773Z,6.44
2018-02-09T12:12:48.692Z,6.95
2018-02-09T12:15:16.658Z,6.65
2018-02-09T12:17:44.671Z,6.67
2018-02-09T12:20:12.496Z,7.18
2018-02-09T12:22:40.462Z,7.13
2018-02-09T12:25:08.580Z,7.61
2018-02-09T12:27:36.650Z,7.46
2018-02-09T12:30:05.386Z,7.13
2018-02-09T12:32:33.382Z,7.35
2018-02-09T12:35:02.815Z,7.27
2018-02-09T12:37:32.640Z,7.33
2018-02-09T12:40:00.403Z,7.11
2018-02-09T12:42:28.149Z,6.72
2018-02-09T12:44:56.326Z,6.87
2018-02-09T12:47:24.159Z,6.88
2018-02-09T12:49:52.164Z,6.73
2018-02-09T12:52:20.030Z,6.80
2018-02-09T12:54:47.964Z,6.93
2018-02-09T12:57:16.026Z,6.82
2018-02-09T12:59:44.759Z,6.95
2018-02-09T13:02:12.691Z,7.54
2018-02-09T13:04:41.440Z,7.56
2018-02-09T13:07:09.318Z,7.65
2018-02-09T13:09:37.212Z,7.81
2018-02-09T13:12:05.079Z,8.12
2018-02-09T13:14:44.622Z,8.25
2018-02-09T13:17:12.834Z,8.56
2018-02-09T13:19:40.808Z,7.84
2018-02-09T13:22:09.673Z,7.47
2018-02-09T13:24:37.611Z,7.28
2018-02-09T13:27:05.702Z,7.78
2018-02-09T13:29:33.811Z,7.45
2018-02-09T13:32:02.144Z,7.27
2018-02-09T13:34:30.034Z,7.08
2018-02-09T13:37:28.130Z,7.20
2018-02-09T13:39:56.304Z,6.98
2018-02-09T13:42:25.092Z,7.24
2018-02-09T13:44:53.869Z,7.29
2018-02-09T13:47:21.817Z,7.21
2018-02-09T13:49:49.686Z,7.16
2018-02-09T13:52:17.694Z,6.77
2018-02-09T13:54:45.659Z,6.80
2018-02-09T13:57:14.632Z,7.43
2018-02-09T13:59:43.624Z,7.80
2018-02-09T14:02:11.715Z,8.09
2018-02-09T14:04:39.735Z,8.25
2018-02-09T14:07:08.526Z,7.98
2018-02-09T14:09:37.497Z,7.90
2018-02-09T14:12:06.438Z,7.92
2018-02-09T14:14:34.430Z,7.74
2018-02-09T14:17:02.506Z,7.73
2018-02-09T14:19:31.394Z,7.24
2018-02-09T14:21:59.426Z,7.29
2018-02-09T14:24:27.526Z,7.22
2018-02-09T14:26:55.565Z,7.29
2018-02-09T14:29:23.455Z,6.96
2018-02-09T14:31:51.530Z,6.99
2018-02-09T14:34:19.617Z,6.65
2018-02-09T14:36:47.584Z,6.46
2018-02-09T14:39:15.667Z,6.40
2018-02-09T14:41:43.618Z,6.30
2018-02-09T14:44:11.459Z,6.17
2018-02-09T14:46:39.424Z,6.16
2018-02-09T14:49:07.348Z,5.76
2018-02-09T14:51:35.208Z,5.42
2018-02-09T14:54:03.025Z,5.26
2018-02-09T14:56:31.038Z,5.23
2018-02-09T14:58:59.013Z,5.29
2018-02-09T15:01:27.289Z,5.18
2018-02-09T15:03:55.943Z,5.17
2018-02-09T15:06:24.114Z,5.04
2018-02-09T15:08:51.975Z,4.44
2018-02-09T15:11:20.952Z,4.26
2018-02-09T15:13:49.069Z,4.57
2018-02-09T15:16:17.252Z,4.46
2018-02-09T15:18:45.325Z,4.39
2018-02-09T15:21:13.363Z,4.31
2018-02-09T15:23:41.434Z,4.06
2018-02-09T15:26:10.371Z,4.03
2018-02-09T15:28:38.099Z,3.92
2018-02-09T15:31:05.935Z,3.76
2018-02-09T15:33:33.758Z,3.84
2018-02-09T15:36:01.892Z,3.70
2018-02-09T15:38:29.797Z,3.64
2018-02-09T15:40:57.565Z,3.39
2018-02-09T15:43:25.337Z,3.41
2018-02-09T15:45:53.106Z,3.22
2018-02-09T15:48:20.829Z,3.17
2018-02-09T15:50:48.599Z,3.01
2018-02-09T15:53:16.273Z,2.59
2018-02-09T15:55:44.052Z,2.70
2018-02-09T15:58:11.860Z,2.86
2018-02-09T16:00:39.653Z,2.41
2018-02-09T16:03:07.536Z,2.43
2018-02-09T16:05:35.496Z,2.49
2018-02-09T16:08:03.484Z,2.47
2018-02-09T16:10:31.440Z,2.43
2018-02-09T16:12:59.150Z,2.44
2018-02-09T16:15:29.134Z,2.35
2018-02-09T16:17:57.933Z,2.44
2018-02-09T16:20:27.317Z,2.41
2018-02-09T16:22:55.610Z,2.32
2018-02-09T16:25:23.458Z,2.13
2018-02-09T16:27:51.524Z,2.14
2018-02-09T16:30:20.222Z,1.75
2018-02-09T16:32:50.937Z,1.75
2018-02-09T16:35:19.310Z,1.61
2018-02-09T16:37:48.016Z,1.66
2018-02-09T16:40:16.521Z,1.47
2018-02-09T16:42:44.990Z,1.31
2018-02-09T16:45:13.927Z,1.36
2018-02-09T16:47:43.474Z,1.38
2018-02-09T16:50:11.425Z,1.47
2018-02-09T16:52:40.619Z,0.96
2018-02-09T16:55:08.731Z,1.14
2018-02-09T16:57:36.759Z,1.06
2018-02-09T17:00:04.822Z,0.95
2018-02-09T17:02:32.639Z,0.95
2018-02-09T17:05:01.937Z,0.94
2018-02-09T17:07:29.724Z,1.00
2018-02-09T17:09:57.766Z,0.97
2018-02-09T17:12:26.445Z,0.70
2018-02-09T17:14:54.181Z,0.47
2018-02-09T17:17:21.929Z,0.61
2018-02-09T17:19:50.757Z,0.53
2018-02-09T17:22:18.771Z,0.53
2018-02-09T17:24:47.843Z,0.44
2018-02-09T17:27:15.585Z,0.65
2018-02-09T17:29:44.795Z,0.33
2018-02-09T17:32:12.879Z,0.27
2018-02-09T17:34:40.712Z,0.45
2018-02-09T17:37:08.716Z,0.29
2018-02-09T17:39:36.485Z,0.28
2018-02-09T17:42:04.359Z,0.25
2018-02-09T17:44:32.090Z,0.27
2018-02-09T17:46:59.876Z,0.23
2018-02-09T17:49:27.553Z,0.25
2018-02-09T17:51:55.341Z,0.29
2018-02-09T17:54:23.152Z,0.18
2018-02-09T17:56:50.836Z,0.17
2018-02-09T17:59:18.597Z,0.17
2018-02-09T18:01:46.324Z,0.12
2018-02-09T18:04:14.090Z,0.13
2018-02-09T18:06:42.796Z,0.06
2018-02-09T18:09:10.529Z,0.01
2018-02-09T18:11:38.360Z,-0.01
2018-02-09T18:14:06.127Z,-0.14
2018-02-09T18:16:33.942Z,-0.04
2018-02-09T18:19:01.750Z,-0.18
2018-02-09T18:21:29.541Z,-0.12
2018-02-09T18:23:57.588Z,-0.19
2018-02-09T18:26:25.612Z,-0.27
2018-02-09T18:28:53.475Z,-0.43
2018-02-09T18:31:21.284Z,-0.47
2018-02-09T18:33:49.688Z,-0.55
2018-02-09T18:36:17.641Z,-0.52
2018-02-09T18:38:46.322Z,-0.54
2018-02-09T18:41:14.046Z,-0.53
2018-02-09T18:43:41.794Z,-0.60
2018-02-09T18:46:09.682Z,-0.73
2018-02-09T18:48:37.406Z,-0.85
2018-02-09T18:51:07.066Z,-0.73
2018-02-09T18:53:35.058Z,-0.80
2018-02-09T18:56:02.821Z,-0.80
2018-02-09T18:58:30.823Z,-0.90
2018-02-09T19:00:59.514Z,-0.94
2018-02-09T19:03:29.292Z,-0.81
2018-02-09T19:05:57.089Z,-1.02
2018-02-09T19:08:24.920Z,-1.27
2018-02-09T19:10:53.650Z,-1.14
2018-02-09T19:13:21.769Z,-1.02
2018-02-09T19:15:49.829Z,-1.10
2018-02-09T19:18:18.742Z,-1.09
2018-02-09T19:20:46.559Z,-1.25
2018-02-09T19:23:15.524Z,-1.25
2018-02-09T19:25:43.840Z,-1.33
2018-02-09T19:28:11.709Z,-1.34
2018-02-09T19:30:40.662Z,-1.42
2018-02-09T19:33:09.334Z,-1.66
2018-02-09T19:35:39.572Z,-1.75
2018-02-09T19:38:09.053Z,-1.72
2018-02-09T19:40:36.875Z,-1.68
2018-02-09T19:43:06.344Z,-1.58
2018-02-09T19:45:34.464Z,-1.52
2018-02-09T19:48:02.305Z,-1.58
2018-02-09T19:50:30.105Z,-1.63
2018-02-09T19:52:57.894Z,-1.61
2018-02-09T19:55:26.068Z,-1.59
2018-02-09T19:57:53.976Z,-1.69
2018-02-09T20:00:21.789Z,-1.75
2018-02-09T20:02:49.611Z,-1.71
2018-02-09T20:05:17.562Z,-1.85
2018-02-09T20:07:45.335Z,-1.85
2018-02-09T20:10:13.176Z,-1.73
2018-02-09T20:12:40.984Z,-1.84
2018-02-09T20:15:08.735Z,-1.88
2018-02-09T20:17:36.557Z,-1.86
2018-02-09T20:20:04.428Z,-1.83
2018-02-09T20:22:32.284Z,-1.97
2018-02-09T20:25:00.052Z,-2.01
2018-02-09T20:27:27.912Z,-2.00
2018-02-09T20:29:55.642Z,-2.01
2018-02-09T20:32:23.445Z,-1.97
2018-02-09T20:34:51.305Z,-2.16
2018-02-09T20:37:19.001Z,-2.13
2018-02-09T20:39:47.328Z,-2.08
2018-02-09T20:42:15.078Z,-2.10
2018-02-09T20:44:42.808Z,-2.10
2018-02-09T20:47:10.639Z,-2.05
2018-02-09T20:49:38.442Z,-2.13
2018-02-09T20:52:06.230Z,-2.10
2018-02-09T20:54:34.050Z,-2.15
2018-02-09T20:57:01.783Z,-2.14
2018-02-09T20:59:30.553Z,-2.18
2018-02-09T21:01:58.433Z,-2.11
2018-02-09T21:04:26.254Z,-2.19
2018-02-09T21:06:54.097Z,-2.36
2018-02-09T21:09:21.878Z,-2.17
2018-02-09T21:11:49.720Z,-2.03
2018-02-09T21:14:17.457Z,-2.00
2018-02-09T21:16:45.611Z,-1.88
2018-02-09T21:19:14.344Z,-1.87
2018-02-09T21:21:42.443Z,-1.92
2018-02-09T21:24:10.171Z,-1.86
2018-02-09T21:26:37.950Z,-1.77
2018-02-09T21:29:05.751Z,-1.71
2018-02-09T21:31:34.150Z,-1.65
2018-02-09T21:34:01.887Z,-1.61
2018-02-09T21:36:29.753Z,-1.59
2018-02-09T21:38:57.616Z,-1.59
2018-02-09T21:41:25.347Z,-1.51
2018-02-09T21:43:53.312Z,-1.47
2018-02-09T21:46:21.126Z,-1.47
2018-02-09T21:48:49.058Z,-1.39
2018-02-09T21:51:17.067Z,-1.52
2018-02-09T21:53:44.914Z,-1.65
2018-02-09T21:56:14.650Z,-1.73
2018-02-09T21:58:42.469Z,-1.73
2018-02-09T22:01:10.277Z,-1.71
2018-02-09T22:03:38.022Z,-1.82
2018-02-09T22:06:07.059Z,-1.78
2018-02-09T22:08:34.725Z,-1.83
2018-02-09T22:11:02.480Z,-1.84
2018-02-09T22:13:30.203Z,-2.05
2018-02-09T22:15:57.902Z,-2.13
2018-02-09T22:18:25.656Z,-2.13
2018-02-09T22:20:53.443Z,-2.01
2018-02-09T22:23:21.229Z,-1.86
2018-02-09T22:25:48.999Z,-1.80
2018-02-09T22:28:16.863Z,-1.74
2018-02-09T22:30:44.581Z,-1.68
2018-02-09T22:33:12.322Z,-1.61
2018-02-09T22:35:40.068Z,-1.59
2018-02-09T22:38:07.794Z,-1.59
2018-02-09T22:40:35.563Z,-1.57
2018-02-09T22:43:03.251Z,-1.55
2018-02-09T22:45:31.925Z,-1.71
2018-02-09T22:47:59.646Z,-1.76
2018-02-09T22:50:27.402Z,-1.72
2018-02-09T22:52:55.124Z,-1.68
2018-02-09T22:55:22.787Z,-1.54
2018-02-09T22:57:50.540Z,-1.51
2018-02-09T23:00:18.303Z,-1.52
2018-02-09T23:02:46.037Z,-1.59
2018-02-09T23:05:13.896Z,-1.72
2018-02-09T23:07:41.590Z,-1.87
2018-02-09T23:10:09.375Z,-1.89
2018-02-09T23:12:37.080Z,-1.84
2018-02-09T23:15:04.867Z,-1.84
2018-02-09T23:17:33.231Z,-1.99
2018-02-09T23:20:00.985Z,-2.06
2018-02-09T23:22:28.658Z,-1.93
2018-02-09T23:24:56.336Z,-1.69
2018-02-09T23:27:24.054Z,-1.70
2018-02-09T23:29:51.899Z,-1.67
2018-02-09T23:32:19.601Z,-1.64
2018-02-09T23:34:47.302Z,-1.68
2018-02-09T23:37:15.043Z,-1.82
2018-02-09T23:39:42.732Z,-1.71
2018-02-09T23:42:10.482Z,-1.99
2018-02-09T23:44:38.207Z,-2.08
2018-02-09T23:47:05.976Z,-2.15
2018-02-09T23:49:33.678Z,-2.14
2018-02-09T23:52:01.418Z,-1.98
2018-02-09T23:54:29.115Z,-1.79
2018-02-09T23:56:56.861Z,-1.84
2018-02-09T23:59:24.537Z,-1.96
